sensor_id;sensor_type;location;lat;lon;timestamp;pressure;altitude;pressure_sealevel;temperature;humidity
59367;BME280;45163;47.690;11.770;2023-04-21T00:02:06;92949.66;;;4.09;100.00
59367;BME280;45163;47.690;11.770;2023-04-21T00:04:32;92949.28;;;4.11;100.00
59367;BME280;45163;47.690;11.770;2023-04-21T00:06:58;92950.44;;;4.10;100.00
59367;BME280;45163;47.690;11.770;2023-04-21T00:09:29;92955.75;;;4.17;100.00
59367;BME280;45163;47.690;11.770;2023-04-21T00:11:56;92948.75;;;4.23;100.00
59367;BME280;45163;47.690;11.770;2023-04-21T00:14:22;92959.97;;;4.18;100.00
59367;BME280;45163;47.690;11.770;2023-04-21T00:16:48;92964.66;;;4.14;100.00
59367;BME280;45163;47.690;11.770;2023-04-21T00:19:18;92953.22;;;4.03;100.00
59367;BME280;45163;47.690;11.770;2023-04-21T00:21:44;92948.19;;;4.01;100.00
59367;BME280;45163;47.690;11.770;2023-04-21T00:24:13;92947.44;;;4.00;100.00
59367;BME280;45163;47.690;11.770;2023-04-21T00:26:39;92935.56;;;3.94;100.00
59367;BME280;45163;47.690;11.770;2023-04-21T00:29:05;92932.81;;;3.98;100.00
59367;BME280;45163;47.690;11.770;2023-04-21T00:31:31;92930.50;;;3.96;100.00
59367;BME280;45163;47.690;11.770;2023-04-21T00:33:57;92920.88;;;3.95;100.00
59367;BME280;45163;47.690;11.770;2023-04-21T00:36:23;92920.19;;;3.88;100.00
59367;BME280;45163;47.690;11.770;2023-04-21T00:38:53;92912.03;;;3.91;100.00
59367;BME280;45163;47.690;11.770;2023-04-21T00:41:19;92918.66;;;3.87;100.00
59367;BME280;45163;47.690;11.770;2023-04-21T00:44:04;92919.06;;;3.85;100.00
59367;BME280;45163;47.690;11.770;2023-04-21T00:46:31;92910.63;;;3.80;100.00
59367;BME280;45163;47.690;11.770;2023-04-21T00:48:58;92906.41;;;3.75;100.00
59367;BME280;45163;47.690;11.770;2023-04-21T00:51:25;92902.19;;;3.74;100.00
59367;BME280;45163;47.690;11.770;2023-04-21T00:53:54;92903.38;;;3.73;100.00
59367;BME280;45163;47.690;11.770;2023-04-21T00:56:21;92898.72;;;3.73;100.00
59367;BME280;45163;47.690;11.770;2023-04-21T00:58:47;92887.19;;;3.73;100.00
59367;BME280;45163;47.690;11.770;2023-04-21T01:01:14;92884.47;;;3.73;100.00
59367;BME280;45163;47.690;11.770;2023-04-21T01:03:40;92900.63;;;3.77;100.00
59367;BME280;45163;47.690;11.770;2023-04-21T01:06:06;92891.75;;;3.76;100.00
59367;BME280;45163;47.690;11.770;2023-04-21T01:08:33;92894.41;;;3.80;100.00
59367;BME280;45163;47.690;11.770;2023-04-21T01:11:00;92895.59;;;3.79;100.00
59367;BME280;45163;47.690;11.770;2023-04-21T01:13:26;92902.16;;;3.78;100.00
59367;BME280;45163;47.690;11.770;2023-04-21T01:15:51;92896.34;;;3.79;100.00
59367;BME280;45163;47.690;11.770;2023-04-21T01:18:17;92890.63;;;3.73;100.00
59367;BME280;45163;47.690;11.770;2023-04-21T01:20:44;92892.97;;;3.71;100.00
59367;BME280;45163;47.690;11.770;2023-04-21T01:23:10;92897.59;;;3.71;100.00
59367;BME280;45163;47.690;11.770;2023-04-21T01:25:36;92897.59;;;3.71;100.00
59367;BME280;45163;47.690;11.770;2023-04-21T01:28:02;92892.22;;;3.67;100.00
59367;BME280;45163;47.690;11.770;2023-04-21T01:30:28;92898.44;;;3.64;100.00
59367;BME280;45163;47.690;11.770;2023-04-21T01:32:54;92903.44;;;3.66;100.00
59367;BME280;45163;47.690;11.770;2023-04-21T01:35:20;92897.28;;;3.65;100.00
59367;BME280;45163;47.690;11.770;2023-04-21T01:37:46;92899.59;;;3.63;100.00
59367;BME280;45163;47.690;11.770;2023-04-21T01:40:12;92914.72;;;3.54;100.00
59367;BME280;45163;47.690;11.770;2023-04-21T01:42:40;92908.81;;;3.66;100.00
59367;BME280;45163;47.690;11.770;2023-04-21T01:45:07;92906.19;;;3.59;100.00
59367;BME280;45163;47.690;11.770;2023-04-21T01:47:33;92911.56;;;3.62;100.00
59367;BME280;45163;47.690;11.770;2023-04-21T01:49:59;92903.84;;;3.64;100.00
59367;BME280;45163;47.690;11.770;2023-04-21T01:52:25;92910.03;;;3.61;100.00
59367;BME280;45163;47.690;11.770;2023-04-21T01:54:51;92898.81;;;3.63;100.00
59367;BME280;45163;47.690;11.770;2023-04-21T01:57:17;92902.34;;;3.60;100.00
59367;BME280;45163;47.690;11.770;2023-04-21T01:59:43;92909.31;;;3.54;100.00
59367;BME280;45163;47.690;11.770;2023-04-21T02:02:09;92913.53;;;3.55;100.00
59367;BME280;45163;47.690;11.770;2023-04-21T02:04:35;92913.94;;;3.57;100.00
59367;BME280;45163;47.690;11.770;2023-04-21T02:07:01;92915.09;;;3.56;100.00
59367;BME280;45163;47.690;11.770;2023-04-21T02:09:27;92914.00;;;3.46;100.00
59367;BME280;45163;47.690;11.770;2023-04-21T02:11:57;92905.41;;;3.58;100.00
59367;BME280;45163;47.690;11.770;2023-04-21T02:14:24;92905.09;;;3.53;100.00
59367;BME280;45163;47.690;11.770;2023-04-21T02:16:50;92906.63;;;3.54;100.00
59367;BME280;45163;47.690;11.770;2023-04-21T02:19:16;92912.47;;;3.48;100.00
59367;BME280;45163;47.690;11.770;2023-04-21T02:21:42;92911.25;;;3.53;100.00
59367;BME280;45163;47.690;11.770;2023-04-21T02:24:08;92903.91;;;3.57;100.00
59367;BME280;45163;47.690;11.770;2023-04-21T02:26:34;92909.28;;;3.57;100.00
59367;BME280;45163;47.690;11.770;2023-04-21T02:29:01;92909.72;;;3.52;100.00
59367;BME280;45163;47.690;11.770;2023-04-21T02:31:27;92918.22;;;3.50;100.00
59367;BME280;45163;47.690;11.770;2023-04-21T02:33:53;92913.97;;;3.49;100.00
59367;BME280;45163;47.690;11.770;2023-04-21T02:36:20;92910.56;;;3.42;100.00
59367;BME280;45163;47.690;11.770;2023-04-21T02:38:46;92917.97;;;3.34;100.00
59367;BME280;45163;47.690;11.770;2023-04-21T02:41:12;92914.47;;;3.37;100.00
59367;BME280;45163;47.690;11.770;2023-04-21T02:43:38;92916.78;;;3.39;100.00
59367;BME280;45163;47.690;11.770;2023-04-21T02:46:08;92921.81;;;3.37;100.00
59367;BME280;45163;47.690;11.770;2023-04-21T02:48:35;92929.91;;;3.33;100.00
59367;BME280;45163;47.690;11.770;2023-04-21T02:51:01;92925.31;;;3.30;100.00
59367;BME280;45163;47.690;11.770;2023-04-21T02:53:27;92921.91;;;3.26;100.00
59367;BME280;45163;47.690;11.770;2023-04-21T02:55:53;92924.94;;;3.28;100.00
59367;BME280;45163;47.690;11.770;2023-04-21T02:58:19;92918.03;;;3.27;100.00
59367;BME280;45163;47.690;11.770;2023-04-21T03:00:45;92917.66;;;3.21;100.00
59367;BME280;45163;47.690;11.770;2023-04-21T03:03:11;92909.59;;;3.21;100.00
59367;BME280;45163;47.690;11.770;2023-04-21T03:05:37;92906.50;;;3.23;100.00
59367;BME280;45163;47.690;11.770;2023-04-21T03:08:03;92893.03;;;3.23;100.00
59367;BME280;45163;47.690;11.770;2023-04-21T03:10:29;92903.03;;;3.26;100.00
59367;BME280;45163;47.690;11.770;2023-04-21T03:12:55;92902.63;;;3.28;100.00
59367;BME280;45163;47.690;11.770;2023-04-21T03:15:21;92901.84;;;3.27;100.00
59367;BME280;45163;47.690;11.770;2023-04-21T03:17:47;92899.53;;;3.25;100.00
59367;BME280;45163;47.690;11.770;2023-04-21T03:20:13;92905.72;;;3.26;100.00
59367;BME280;45163;47.690;11.770;2023-04-21T03:22:39;92905.66;;;3.30;100.00
59367;BME280;45163;47.690;11.770;2023-04-21T03:25:05;92902.97;;;3.30;100.00
59367;BME280;45163;47.690;11.770;2023-04-21T03:27:32;92905.75;;;3.22;100.00
59367;BME280;45163;47.690;11.770;2023-04-21T03:29:59;92908.47;;;3.19;100.00
59367;BME280;45163;47.690;11.770;2023-04-21T03:32:25;92901.50;;;3.21;100.00
59367;BME280;45163;47.690;11.770;2023-04-21T03:34:51;92895.72;;;3.23;100.00
59367;BME280;45163;47.690;11.770;2023-04-21T03:37:17;92896.16;;;3.18;100.00
59367;BME280;45163;47.690;11.770;2023-04-21T03:39:43;92903.50;;;3.14;100.00
59367;BME280;45163;47.690;11.770;2023-04-21T03:42:09;92898.91;;;3.11;100.00
59367;BME280;45163;47.690;11.770;2023-04-21T03:44:35;92899.25;;;3.13;100.00
59367;BME280;45163;47.690;11.770;2023-04-21T03:47:01;92891.16;;;3.13;100.00
59367;BME280;45163;47.690;11.770;2023-04-21T03:49:29;92900.41;;;3.15;100.00
59367;BME280;45163;47.690;11.770;2023-04-21T03:51:55;92895.34;;;3.21;100.00
59367;BME280;45163;47.690;11.770;2023-04-21T03:54:21;92897.28;;;3.20;100.00
59367;BME280;45163;47.690;11.770;2023-04-21T03:56:47;92900.72;;;3.21;100.00
59367;BME280;45163;47.690;11.770;2023-04-21T03:59:13;92893.41;;;3.21;100.00
59367;BME280;45163;47.690;11.770;2023-04-21T04:01:39;92889.56;;;3.22;100.00
59367;BME280;45163;47.690;11.770;2023-04-21T04:04:06;92885.28;;;3.25;100.00
59367;BME280;45163;47.690;11.770;2023-04-21T04:06:32;92881.81;;;3.28;100.00
59367;BME280;45163;47.690;11.770;2023-04-21T04:09:00;92879.56;;;3.19;100.00
59367;BME280;45163;47.690;11.770;2023-04-21T04:11:32;92882.66;;;3.18;100.00
59367;BME280;45163;47.690;11.770;2023-04-21T04:13:58;92885.72;;;3.20;100.00
59367;BME280;45163;47.690;11.770;2023-04-21T04:16:24;92881.88;;;3.17;100.00
59367;BME280;45163;47.690;11.770;2023-04-21T04:18:50;92877.69;;;3.09;100.00
59367;BME280;45163;47.690;11.770;2023-04-21T04:21:16;92878.41;;;3.17;100.00
59367;BME280;45163;47.690;11.770;2023-04-21T04:23:42;92871.88;;;3.18;100.00
59367;BME280;45163;47.690;11.770;2023-04-21T04:26:09;92870.72;;;3.15;100.00
59367;BME280;45163;47.690;11.770;2023-04-21T04:28:36;92864.97;;;3.13;100.00
59367;BME280;45163;47.690;11.770;2023-04-21T04:31:02;92868.00;;;3.22;100.00
59367;BME280;45163;47.690;11.770;2023-04-21T04:33:28;92859.81;;;3.30;100.00
59367;BME280;45163;47.690;11.770;2023-04-21T04:35:54;92854.41;;;3.33;100.00
59367;BME280;45163;47.690;11.770;2023-04-21T04:38:20;92862.75;;;3.46;100.00
59367;BME280;45163;47.690;11.770;2023-04-21T04:40:54;92858.84;;;3.50;100.00
59367;BME280;45163;47.690;11.770;2023-04-21T04:43:22;92858.38;;;3.59;100.00
59367;BME280;45163;47.690;11.770;2023-04-21T04:45:48;92865.22;;;3.67;100.00
59367;BME280;45163;47.690;11.770;2023-04-21T04:48:14;92856.72;;;3.72;100.00
59367;BME280;45163;47.690;11.770;2023-04-21T04:50:40;92866.63;;;3.83;100.00
59367;BME280;45163;47.690;11.770;2023-04-21T04:53:06;92868.56;;;3.82;100.00
59367;BME280;45163;47.690;11.770;2023-04-21T04:55:32;92872.78;;;3.83;100.00
59367;BME280;45163;47.690;11.770;2023-04-21T04:58:01;92873.94;;;3.86;100.00
59367;BME280;45163;47.690;11.770;2023-04-21T05:00:27;92874.22;;;3.95;100.00
59367;BME280;45163;47.690;11.770;2023-04-21T05:02:54;92873.47;;;3.91;100.00
59367;BME280;45163;47.690;11.770;2023-04-21T05:05:20;92871.09;;;3.96;100.00
59367;BME280;45163;47.690;11.770;2023-04-21T05:07:49;92874.19;;;3.98;100.00
59367;BME280;45163;47.690;11.770;2023-04-21T05:10:15;92880.69;;;4.01;100.00
59367;BME280;45163;47.690;11.770;2023-04-21T05:12:41;92878.84;;;3.94;100.00
59367;BME280;45163;47.690;11.770;2023-04-21T05:15:08;92884.56;;;4.00;100.00
59367;BME280;45163;47.690;11.770;2023-04-21T05:17:34;92889.94;;;4.04;100.00
59367;BME280;45163;47.690;11.770;2023-04-21T05:20:00;92890.00;;;3.96;100.00
59367;BME280;45163;47.690;11.770;2023-04-21T05:22:26;92897.19;;;4.10;100.00
59367;BME280;45163;47.690;11.770;2023-04-21T05:24:52;92904.09;;;4.15;100.00
59367;BME280;45163;47.690;11.770;2023-04-21T05:27:18;92901.72;;;4.17;100.00
59367;BME280;45163;47.690;11.770;2023-04-21T05:29:44;92900.13;;;4.23;100.00
59367;BME280;45163;47.690;11.770;2023-04-21T05:32:10;92902.84;;;4.23;100.00
59367;BME280;45163;47.690;11.770;2023-04-21T05:34:37;92905.44;;;4.30;100.00
59367;BME280;45163;47.690;11.770;2023-04-21T05:37:03;92905.41;;;4.34;100.00
59367;BME280;45163;47.690;11.770;2023-04-21T05:39:29;92904.63;;;4.33;100.00
59367;BME280;45163;47.690;11.770;2023-04-21T05:41:55;92905.41;;;4.34;100.00
59367;BME280;45163;47.690;11.770;2023-04-21T05:44:21;92911.91;;;4.40;100.00
59367;BME280;45163;47.690;11.770;2023-04-21T05:46:47;92904.56;;;4.40;100.00
59367;BME280;45163;47.690;11.770;2023-04-21T05:49:13;92914.56;;;4.43;100.00
59367;BME280;45163;47.690;11.770;2023-04-21T05:51:39;92906.38;;;4.47;100.00
59367;BME280;45163;47.690;11.770;2023-04-21T05:54:05;92906.81;;;4.45;100.00
59367;BME280;45163;47.690;11.770;2023-04-21T05:56:31;92908.66;;;4.52;100.00
59367;BME280;45163;47.690;11.770;2023-04-21T05:58:57;92910.88;;;4.61;100.00
59367;BME280;45163;47.690;11.770;2023-04-21T06:01:23;92917.38;;;4.63;100.00
59367;BME280;45163;47.690;11.770;2023-04-21T06:03:49;92924.22;;;4.71;100.00
59367;BME280;45163;47.690;11.770;2023-04-21T06:06:16;92917.22;;;4.78;100.00
59367;BME280;45163;47.690;11.770;2023-04-21T06:08:42;92917.50;;;4.83;100.00
59367;BME280;45163;47.690;11.770;2023-04-21T06:11:08;92917.75;;;4.92;100.00
59367;BME280;45163;47.690;11.770;2023-04-21T06:13:34;92919.56;;;5.03;100.00
59367;BME280;45163;47.690;11.770;2023-04-21T06:16:00;92912.88;;;5.11;100.00
59367;BME280;45163;47.690;11.770;2023-04-21T06:18:26;92921.28;;;5.16;100.00
59367;BME280;45163;47.690;11.770;2023-04-21T06:20:53;92925.38;;;5.28;100.00
59367;BME280;45163;47.690;11.770;2023-04-21T06:23:19;92911.78;;;5.32;100.00
59367;BME280;45163;47.690;11.770;2023-04-21T06:25:46;92909.94;;;5.25;100.00
59367;BME280;45163;47.690;11.770;2023-04-21T06:28:12;92909.47;;;5.30;100.00
59367;BME280;45163;47.690;11.770;2023-04-21T06:30:38;92902.56;;;5.53;100.00
59367;BME280;45163;47.690;11.770;2023-04-21T06:33:04;92890.97;;;5.52;100.00
59367;BME280;45163;47.690;11.770;2023-04-21T06:35:31;92897.81;;;5.60;100.00
59367;BME280;45163;47.690;11.770;2023-04-21T06:37:57;92892.25;;;5.67;100.00
59367;BME280;45163;47.690;11.770;2023-04-21T06:40:23;92890.56;;;5.77;100.00
59367;BME280;45163;47.690;11.770;2023-04-21T06:42:49;92886.28;;;5.76;100.00
59367;BME280;45163;47.690;11.770;2023-04-21T06:45:15;92886.78;;;5.71;100.00
59367;BME280;45163;47.690;11.770;2023-04-21T06:47:41;92877.34;;;5.79;100.00
59367;BME280;45163;47.690;11.770;2023-04-21T06:50:07;92880.00;;;5.83;100.00
59367;BME280;45163;47.690;11.770;2023-04-21T06:52:33;92880.06;;;6.03;100.00
59367;BME280;45163;47.690;11.770;2023-04-21T06:54:59;92878.53;;;6.21;100.00
59367;BME280;45163;47.690;11.770;2023-04-21T06:57:25;92880.91;;;6.19;100.00
59367;BME280;45163;47.690;11.770;2023-04-21T06:59:51;92875.88;;;6.38;100.00
59367;BME280;45163;47.690;11.770;2023-04-21T07:02:18;92870.63;;;6.67;100.00
59367;BME280;45163;47.690;11.770;2023-04-21T07:04:43;92874.75;;;6.91;100.00
59367;BME280;45163;47.690;11.770;2023-04-21T07:07:09;92877.56;;;7.04;100.00
59367;BME280;45163;47.690;11.770;2023-04-21T07:09:35;92870.53;;;7.07;100.00
59367;BME280;45163;47.690;11.770;2023-04-21T07:12:01;92878.13;;;7.32;100.00
59367;BME280;45163;47.690;11.770;2023-04-21T07:14:27;92866.53;;;7.44;100.00
59367;BME280;45163;47.690;11.770;2023-04-21T07:16:53;92861.47;;;7.46;100.00
59367;BME280;45163;47.690;11.770;2023-04-21T07:19:22;92860.19;;;7.51;100.00
59367;BME280;45163;47.690;11.770;2023-04-21T07:21:48;92861.59;;;7.71;100.00
59367;BME280;45163;47.690;11.770;2023-04-21T07:24:14;92853.31;;;8.08;100.00
59367;BME280;45163;47.690;11.770;2023-04-21T07:26:40;92857.88;;;8.40;100.00
59367;BME280;45163;47.690;11.770;2023-04-21T07:29:06;92855.53;;;8.67;100.00
59367;BME280;45163;47.690;11.770;2023-04-21T07:31:32;92842.63;;;9.10;100.00
59367;BME280;45163;47.690;11.770;2023-04-21T07:33:58;92839.84;;;9.48;100.00
59367;BME280;45163;47.690;11.770;2023-04-21T07:36:24;92827.28;;;9.98;100.00
59367;BME280;45163;47.690;11.770;2023-04-21T07:38:50;92826.25;;;10.39;100.00
59367;BME280;45163;47.690;11.770;2023-04-21T07:41:16;92817.97;;;10.74;100.00
59367;BME280;45163;47.690;11.770;2023-04-21T07:43:42;92813.16;;;10.56;100.00
59367;BME280;45163;47.690;11.770;2023-04-21T07:46:08;92807.28;;;10.89;100.00
59367;BME280;45163;47.690;11.770;2023-04-21T07:48:34;92810.03;;;10.98;100.00
59367;BME280;45163;47.690;11.770;2023-04-21T07:51:00;92818.31;;;11.75;100.00
59367;BME280;45163;47.690;11.770;2023-04-21T07:53:28;92806.63;;;12.39;100.00
59367;BME280;45163;47.690;11.770;2023-04-21T07:55:54;92806.91;;;13.11;100.00
59367;BME280;45163;47.690;11.770;2023-04-21T07:58:20;92800.94;;;13.21;100.00
59367;BME280;45163;47.690;11.770;2023-04-21T08:00:47;92803.09;;;13.08;100.00
59367;BME280;45163;47.690;11.770;2023-04-21T08:03:13;92807.31;;;12.76;100.00
59367;BME280;45163;47.690;11.770;2023-04-21T08:05:42;92810.41;;;12.41;100.00
59367;BME280;45163;47.690;11.770;2023-04-21T08:08:08;92816.22;;;12.25;100.00
59367;BME280;45163;47.690;11.770;2023-04-21T08:10:34;92817.13;;;12.40;100.00
59367;BME280;45163;47.690;11.770;2023-04-21T08:13:00;92815.00;;;11.89;100.00
59367;BME280;45163;47.690;11.770;2023-04-21T08:15:26;92821.09;;;12.03;100.00
59367;BME280;45163;47.690;11.770;2023-04-21T08:17:52;92816.50;;;12.55;100.00
59367;BME280;45163;47.690;11.770;2023-04-21T08:20:18;92814.53;;;12.55;100.00
59367;BME280;45163;47.690;11.770;2023-04-21T08:22:44;92826.25;;;12.28;100.00
59367;BME280;45163;47.690;11.770;2023-04-21T08:25:10;92823.38;;;12.04;100.00
59367;BME280;45163;47.690;11.770;2023-04-21T08:27:39;92816.50;;;12.45;100.00
59367;BME280;45163;47.690;11.770;2023-04-21T08:30:05;92818.84;;;12.89;100.00
59367;BME280;45163;47.690;11.770;2023-04-21T08:32:32;92815.03;;;13.38;100.00
59367;BME280;45163;47.690;11.770;2023-04-21T08:34:58;92810.59;;;13.41;100.00
59367;BME280;45163;47.690;11.770;2023-04-21T08:37:24;92810.75;;;13.47;100.00
59367;BME280;45163;47.690;11.770;2023-04-21T08:39:50;92814.16;;;13.32;100.00
59367;BME280;45163;47.690;11.770;2023-04-21T08:42:17;92817.25;;;13.49;100.00
59367;BME280;45163;47.690;11.770;2023-04-21T08:44:44;92815.84;;;13.20;100.00
59367;BME280;45163;47.690;11.770;2023-04-21T08:47:11;92807.22;;;13.13;100.00
59367;BME280;45163;47.690;11.770;2023-04-21T08:49:39;92808.56;;;12.75;100.00
59367;BME280;45163;47.690;11.770;2023-04-21T08:52:06;92815.53;;;13.61;100.00
59367;BME280;45163;47.690;11.770;2023-04-21T08:54:33;92812.63;;;13.31;100.00
59367;BME280;45163;47.690;11.770;2023-04-21T08:57:01;92805.59;;;13.87;100.00
59367;BME280;45163;47.690;11.770;2023-04-21T08:59:28;92811.19;;;14.17;100.00
59367;BME280;45163;47.690;11.770;2023-04-21T09:02:14;92796.91;;;14.81;100.00
59367;BME280;45163;47.690;11.770;2023-04-21T09:04:46;92794.34;;;14.92;100.00
59367;BME280;45163;47.690;11.770;2023-04-21T09:09:56;92805.75;;;16.26;100.00
59367;BME280;45163;47.690;11.770;2023-04-21T09:12:22;92800.47;;;16.49;100.00
59367;BME280;45163;47.690;11.770;2023-04-21T09:14:49;92801.25;;;16.29;100.00
59367;BME280;45163;47.690;11.770;2023-04-21T09:17:16;92805.38;;;15.78;100.00
59367;BME280;45163;47.690;11.770;2023-04-21T09:19:42;92801.69;;;15.31;100.00
59367;BME280;45163;47.690;11.770;2023-04-21T09:22:13;92802.13;;;15.44;100.00
59367;BME280;45163;47.690;11.770;2023-04-21T09:24:44;92812.06;;;15.56;100.00
59367;BME280;45163;47.690;11.770;2023-04-21T09:27:12;92800.59;;;15.93;100.00
59367;BME280;45163;47.690;11.770;2023-04-21T09:29:44;92802.03;;;16.55;100.00
59367;BME280;45163;47.690;11.770;2023-04-21T09:32:15;92801.69;;;16.94;100.00
59367;BME280;45163;47.690;11.770;2023-04-21T09:34:42;92799.81;;;18.23;100.00
59367;BME280;45163;47.690;11.770;2023-04-21T09:37:10;92795.00;;;19.00;100.00
59367;BME280;45163;47.690;11.770;2023-04-21T09:39:36;92794.50;;;19.24;100.00
59367;BME280;45163;47.690;11.770;2023-04-21T09:42:03;92781.94;;;20.43;86.11
59367;BME280;45163;47.690;11.770;2023-04-21T09:44:29;92782.22;;;20.34;76.75
59367;BME280;45163;47.690;11.770;2023-04-21T09:47:00;92788.66;;;19.89;75.69
59367;BME280;45163;47.690;11.770;2023-04-21T09:49:30;92792.50;;;19.30;79.05
59367;BME280;45163;47.690;11.770;2023-04-21T09:52:01;92788.41;;;18.70;86.93
59367;BME280;45163;47.690;11.770;2023-04-21T09:54:31;92794.72;;;18.10;91.06
59367;BME280;45163;47.690;11.770;2023-04-21T09:57:00;92788.69;;;18.12;90.81
59367;BME280;45163;47.690;11.770;2023-04-21T09:59:36;92787.22;;;18.22;89.75
59367;BME280;45163;47.690;11.770;2023-04-21T10:02:06;92784.09;;;18.57;78.48
59367;BME280;45163;47.690;11.770;2023-04-21T10:04:34;92784.50;;;18.33;81.68
59367;BME280;45163;47.690;11.770;2023-04-21T10:07:00;92783.72;;;18.22;85.42
59367;BME280;45163;47.690;11.770;2023-04-21T10:09:34;92779.78;;;18.45;82.65
59367;BME280;45163;47.690;11.770;2023-04-21T10:12:02;92777.38;;;18.70;77.89
59367;BME280;45163;47.690;11.770;2023-04-21T10:14:29;92778.28;;;18.50;84.64
59367;BME280;45163;47.690;11.770;2023-04-21T10:17:02;92774.38;;;18.08;80.93
59367;BME280;45163;47.690;11.770;2023-04-21T10:19:29;92767.09;;;17.62;89.54
59367;BME280;45163;47.690;11.770;2023-04-21T10:22:00;92764.75;;;17.49;86.90
59367;BME280;45163;47.690;11.770;2023-04-21T10:24:29;92759.75;;;17.16;89.58
59367;BME280;45163;47.690;11.770;2023-04-21T10:26:56;92764.09;;;16.97;97.85
59367;BME280;45163;47.690;11.770;2023-04-21T10:29:32;92758.59;;;16.71;96.19
59367;BME280;45163;47.690;11.770;2023-04-21T10:31:58;92756.22;;;16.84;97.08
59367;BME280;45163;47.690;11.770;2023-04-21T10:41:57;92761.63;;;17.73;90.72
59367;BME280;45163;47.690;11.770;2023-04-21T10:50:12;92745.88;;;18.56;72.27
59367;BME280;45163;47.690;11.770;2023-04-21T10:52:42;92749.84;;;18.27;69.18
59367;BME280;45163;47.690;11.770;2023-04-21T10:55:09;92749.75;;;18.04;74.25
59367;BME280;45163;47.690;11.770;2023-04-21T10:57:40;92745.69;;;17.51;75.90
59367;BME280;45163;47.690;11.770;2023-04-21T11:00:07;92749.31;;;17.68;81.49
59367;BME280;45163;47.690;11.770;2023-04-21T11:02:33;92757.31;;;17.61;92.10
59367;BME280;45163;47.690;11.770;2023-04-21T11:05:01;92749.66;;;17.39;93.23
59367;BME280;45163;47.690;11.770;2023-04-21T11:07:27;92753.38;;;17.36;98.50
59367;BME280;45163;47.690;11.770;2023-04-21T11:12:30;92742.25;;;17.19;96.50
59367;BME280;45163;47.690;11.770;2023-04-21T11:14:57;92750.69;;;17.47;94.68
59367;BME280;45163;47.690;11.770;2023-04-21T11:17:23;92744.59;;;17.37;95.91
59367;BME280;45163;47.690;11.770;2023-04-21T11:19:52;92754.88;;;17.74;97.09
59367;BME280;45163;47.690;11.770;2023-04-21T11:22:20;92741.38;;;18.53;89.36
59367;BME280;45163;47.690;11.770;2023-04-21T11:24:53;92738.66;;;18.70;85.27
59367;BME280;45163;47.690;11.770;2023-04-21T11:27:20;92743.06;;;19.96;84.21
59367;BME280;45163;47.690;11.770;2023-04-21T11:29:49;92730.13;;;20.74;76.79
59367;BME280;45163;47.690;11.770;2023-04-21T11:32:16;92734.25;;;21.27;79.05
59367;BME280;45163;47.690;11.770;2023-04-21T11:34:42;92739.06;;;21.81;71.39
59367;BME280;45163;47.690;11.770;2023-04-21T11:37:19;92737.94;;;22.39;60.25
59367;BME280;45163;47.690;11.770;2023-04-21T11:39:45;92730.06;;;22.62;56.47
59367;BME280;45163;47.690;11.770;2023-04-21T11:42:19;92733.94;;;23.10;60.56
59367;BME280;45163;47.690;11.770;2023-04-21T11:44:46;92721.59;;;23.05;57.68
59367;BME280;45163;47.690;11.770;2023-04-21T11:47:20;92717.81;;;23.67;51.40
59367;BME280;45163;47.690;11.770;2023-04-21T11:49:57;92711.84;;;23.44;53.01
59367;BME280;45163;47.690;11.770;2023-04-21T11:52:29;92715.97;;;23.70;49.71
59367;BME280;45163;47.690;11.770;2023-04-21T11:54:59;92710.13;;;24.13;46.03
59367;BME280;45163;47.690;11.770;2023-04-21T11:57:26;92707.59;;;24.97;48.31
59367;BME280;45163;47.690;11.770;2023-04-21T11:59:53;92703.72;;;25.83;41.63
59367;BME280;45163;47.690;11.770;2023-04-21T12:02:27;92698.72;;;26.18;40.00
59367;BME280;45163;47.690;11.770;2023-04-21T12:04:58;92701.94;;;27.48;37.07
59367;BME280;45163;47.690;11.770;2023-04-21T12:07:24;92701.78;;;27.85;33.59
59367;BME280;45163;47.690;11.770;2023-04-21T12:09:51;92687.31;;;28.26;30.24
59367;BME280;45163;47.690;11.770;2023-04-21T12:12:17;92700.66;;;26.75;30.83
59367;BME280;45163;47.690;11.770;2023-04-21T12:14:44;92684.50;;;28.26;24.69
59367;BME280;45163;47.690;11.770;2023-04-21T12:17:10;92691.25;;;29.19;29.94
59367;BME280;45163;47.690;11.770;2023-04-21T12:19:39;92687.16;;;29.45;26.32
59367;BME280;45163;47.690;11.770;2023-04-21T12:22:14;92691.13;;;29.67;23.95
59367;BME280;45163;47.690;11.770;2023-04-21T12:24:41;92686.97;;;30.18;27.12
59367;BME280;45163;47.690;11.770;2023-04-21T12:27:08;92683.66;;;31.09;22.21
59367;BME280;45163;47.690;11.770;2023-04-21T12:29:34;92686.84;;;32.42;21.87
59367;BME280;45163;47.690;11.770;2023-04-21T12:32:05;92685.63;;;31.43;20.70
59367;BME280;45163;47.690;11.770;2023-04-21T12:34:32;92679.09;;;31.40;21.23
59367;BME280;45163;47.690;11.770;2023-04-21T12:36:58;92679.25;;;31.42;20.14
59367;BME280;45163;47.690;11.770;2023-04-21T12:39:24;92676.97;;;31.68;20.64
59367;BME280;45163;47.690;11.770;2023-04-21T12:41:50;92670.00;;;30.43;22.07
59367;BME280;45163;47.690;11.770;2023-04-21T12:44:16;92676.88;;;30.08;22.84
59367;BME280;45163;47.690;11.770;2023-04-21T12:46:42;92667.41;;;31.54;21.37
59367;BME280;45163;47.690;11.770;2023-04-21T12:49:08;92670.28;;;29.70;23.36
59367;BME280;45163;47.690;11.770;2023-04-21T12:51:36;92670.16;;;27.92;23.95
59367;BME280;45163;47.690;11.770;2023-04-21T12:54:02;92659.44;;;29.42;22.42
59367;BME280;45163;47.690;11.770;2023-04-21T12:56:28;92663.72;;;28.29;23.16
59367;BME280;45163;47.690;11.770;2023-04-21T12:58:54;92661.09;;;29.45;22.32
59367;BME280;45163;47.690;11.770;2023-04-21T13:01:20;92661.47;;;29.16;23.79
59367;BME280;45163;47.690;11.770;2023-04-21T13:03:46;92662.00;;;28.97;22.57
59367;BME280;45163;47.690;11.770;2023-04-21T13:06:12;92657.28;;;28.60;21.77